Time;durP1;ratioP1;P1;durP2;ratioP2;P2;SDS_P1;SDS_P2;PMS_P1;PMS_P2;Temp;Humidity;BMP_temperature;BMP_pressure;BME280_temperature;BME280_humidity;BME280_pressure;Samples;Min_cycle;Max_cycle;Signal;HPM_P1;HPM_P2
2021/11/24 00:02:10;;;;;;;7.10;3.63;;;;;;;;;;5054948;28;20044;-58
2021/11/24 00:04:36;;;;;;;7.93;4.00;;;;;;;;;;5037343;28;20056;-57
2021/11/24 00:07:02;;;;;;;4.03;3.43;;;;;;;;;;5034692;28;20018;-58
2021/11/24 00:09:27;;;;;;;7.33;4.93;;;;;;;;;;5034115;28;20055;-58
2021/11/24 00:11:53;;;;;;;5.17;3.63;;;;;;;;;;5034582;28;20032;-58
2021/11/24 00:14:19;;;;;;;5.63;3.97;;;;;;;;;;5034614;28;20029;-58
2021/11/24 00:16:45;;;;;;;5.70;3.70;;;;;;;;;;5034596;28;20029;-59
2021/11/24 00:19:11;;;;;;;4.97;3.87;;;;;;;;;;5034003;28;20037;-58
2021/11/24 00:21:37;;;;;;;4.37;3.97;;;;;;;;;;5034479;28;20036;-59
2021/11/24 00:24:04;;;;;;;4.87;3.90;;;;;;;;;;5034443;28;20025;-57
2021/11/24 00:26:29;;;;;;;6.73;3.80;;;;;;;;;;5034297;28;20109;-58
2021/11/24 00:28:55;;;;;;;8.10;5.63;;;;;;;;;;5034003;28;20064;-58
2021/11/24 00:31:21;;;;;;;4.77;3.43;;;;;;;;;;5034433;28;20026;-58
2021/11/24 00:33:47;;;;;;;5.80;3.87;;;;;;;;;;5034460;28;20026;-58
2021/11/24 00:36:13;;;;;;;6.27;3.83;;;;;;;;;;5034359;28;20045;-58
2021/11/24 00:38:39;;;;;;;4.83;4.10;;;;;;;;;;5033392;28;20060;-58
2021/11/24 00:41:05;;;;;;;6.33;4.70;;;;;;;;;;5034008;28;20026;-58
2021/11/24 00:43:31;;;;;;;6.60;5.07;;;;;;;;;;5034405;28;20031;-58
2021/11/24 00:45:57;;;;;;;4.83;3.63;;;;;;;;;;5034128;28;20017;-58
2021/11/24 00:48:23;;;;;;;4.40;3.03;;;;;;;;;;5033602;28;20029;-58
2021/11/24 00:50:49;;;;;;;8.43;5.23;;;;;;;;;;5034100;28;20156;-58
2021/11/24 00:53:16;;;;;;;6.87;4.63;;;;;;;;;;5033960;28;20048;-59
2021/11/24 00:55:42;;;;;;;5.47;3.97;;;;;;;;;;5033702;28;20056;-58
2021/11/24 00:58:08;;;;;;;5.83;4.10;;;;;;;;;;5033441;28;20136;-58
2021/11/24 01:00:34;;;;;;;6.47;4.40;;;;;;;;;;5033485;28;20501;-58
2021/11/24 01:03:00;;;;;;;6.00;4.70;;;;;;;;;;5037915;28;20021;-59
2021/11/24 01:05:27;;;;;;;5.73;4.60;;;;;;;;;;5053737;28;20115;-58
2021/11/24 01:07:53;;;;;;;8.73;6.83;;;;;;;;;;5052774;28;20033;-57
2021/11/24 01:10:19;;;;;;;4.63;4.00;;;;;;;;;;5053295;28;20032;-57
2021/11/24 01:12:45;;;;;;;8.37;5.07;;;;;;;;;;5053759;28;20056;-57
2021/11/24 01:15:12;;;;;;;7.90;4.43;;;;;;;;;;5053606;28;20021;-58
2021/11/24 01:17:37;;;;;;;6.50;4.33;;;;;;;;;;5053769;28;20017;-59
2021/11/24 01:20:04;;;;;;;7.60;4.73;;;;;;;;;;5052729;28;20430;-58
2021/11/24 01:22:30;;;;;;;7.87;5.07;;;;;;;;;;5053267;28;20449;-58
2021/11/24 01:24:56;;;;;;;5.03;3.87;;;;;;;;;;5053079;28;20037;-58
2021/11/24 01:27:22;;;;;;;6.53;5.57;;;;;;;;;;5053353;28;20037;-59
2021/11/24 01:29:48;;;;;;;5.90;4.00;;;;;;;;;;5052604;28;20028;-58
2021/11/24 01:32:14;;;;;;;5.37;4.67;;;;;;;;;;5053286;28;20029;-58
2021/11/24 01:34:40;;;;;;;6.60;5.20;;;;;;;;;;5053179;28;20036;-59
2021/11/24 01:37:06;;;;;;;5.60;4.67;;;;;;;;;;5053328;28;20029;-58
2021/11/24 01:39:32;;;;;;;8.97;5.23;;;;;;;;;;5052169;28;20380;-59
2021/11/24 01:41:58;;;;;;;5.67;4.43;;;;;;;;;;5052667;28;20032;-58
2021/11/24 01:44:25;;;;;;;5.63;4.33;;;;;;;;;;5053093;28;20394;-57
2021/11/24 01:46:55;;;;;;;8.40;5.47;;;;;;;;;;5052965;28;20504;-58
2021/11/24 01:49:22;;;;;;;9.30;5.45;;;;;;;;;;5052288;28;20029;-58
2021/11/24 01:51:48;;;;;;;7.20;5.17;;;;;;;;;;5052720;28;20484;-57
2021/11/24 01:54:15;;;;;;;5.43;4.77;;;;;;;;;;5052782;28;20025;-59
2021/11/24 01:56:41;;;;;;;7.90;4.87;;;;;;;;;;5052649;28;20463;-57
2021/11/24 01:59:11;;;;;;;5.53;4.17;;;;;;;;;;5052039;28;20449;-58
2021/11/24 02:01:42;;;;;;;7.77;5.77;;;;;;;;;;5052645;28;20108;-58
2021/11/24 02:04:08;;;;;;;7.25;5.38;;;;;;;;;;5039075;28;20048;-58
2021/11/24 02:06:34;;;;;;;5.53;4.53;;;;;;;;;;5032340;28;20053;-58
2021/11/24 02:09:00;;;;;;;7.80;4.40;;;;;;;;;;5031903;28;20084;-58
2021/11/24 02:11:27;;;;;;;5.00;4.50;;;;;;;;;;5032540;28;20392;-57
2021/11/24 02:13:52;;;;;;;5.40;4.30;;;;;;;;;;5032536;28;20029;-58
2021/11/24 02:16:18;;;;;;;7.20;4.73;;;;;;;;;;5032401;28;20026;-57
2021/11/24 02:18:44;;;;;;;7.50;5.90;;;;;;;;;;5032012;28;20033;-58
2021/11/24 02:21:11;;;;;;;6.43;4.13;;;;;;;;;;5032137;28;20029;-58
2021/11/24 02:23:37;;;;;;;7.30;4.73;;;;;;;;;;5032227;28;20064;-57
2021/11/24 02:26:03;;;;;;;12.57;5.40;;;;;;;;;;5032330;28;20056;-57
2021/11/24 02:28:29;;;;;;;6.47;4.70;;;;;;;;;;5031645;28;20025;-58
2021/11/24 02:30:55;;;;;;;7.77;5.10;;;;;;;;;;5032038;28;20417;-57
2021/11/24 02:33:21;;;;;;;5.47;4.27;;;;;;;;;;5046928;28;20056;-58
2021/11/24 02:35:47;;;;;;;6.67;4.57;;;;;;;;;;5051723;28;20036;-58
2021/11/24 02:38:17;;;;;;;5.50;4.23;;;;;;;;;;5051828;28;20033;-58
2021/11/24 02:40:44;;;;;;;6.27;5.03;;;;;;;;;;5051679;28;20029;-58
2021/11/24 02:43:10;;;;;;;6.50;4.97;;;;;;;;;;5051977;28;20033;-58
2021/11/24 02:45:37;;;;;;;7.97;5.30;;;;;;;;;;5051808;28;20152;-58
2021/11/24 02:48:03;;;;;;;5.77;4.83;;;;;;;;;;5050992;28;20025;-58
2021/11/24 02:50:29;;;;;;;5.53;4.90;;;;;;;;;;5051880;28;20037;-58
2021/11/24 02:52:56;;;;;;;13.00;6.63;;;;;;;;;;5051412;28;20374;-57
2021/11/24 02:55:22;;;;;;;6.90;5.13;;;;;;;;;;5051532;28;20029;-58
2021/11/24 02:57:49;;;;;;;9.50;6.47;;;;;;;;;;5051007;28;20116;-58
2021/11/24 03:00:23;;;;;;;7.33;6.53;;;;;;;;;;5051767;28;20033;-57
2021/11/24 03:02:49;;;;;;;6.70;5.50;;;;;;;;;;5048702;28;20033;-57
2021/11/24 03:05:17;;;;;;;5.67;4.87;;;;;;;;;;5031996;28;20191;-58
2021/11/24 03:07:43;;;;;;;7.43;5.63;;;;;;;;;;5031398;28;20112;-59
2021/11/24 03:10:09;;;;;;;6.67;5.97;;;;;;;;;;5031219;28;20029;-57
2021/11/24 03:12:35;;;;;;;6.57;5.77;;;;;;;;;;5031581;28;20026;-59
2021/11/24 03:15:02;;;;;;;7.13;5.93;;;;;;;;;;5031522;28;20029;-59
2021/11/24 03:17:28;;;;;;;5.27;4.10;;;;;;;;;;5031590;28;20022;-57
2021/11/24 03:19:56;;;;;;;7.50;5.97;;;;;;;;;;5031071;28;20034;-59
2021/11/24 03:22:22;;;;;;;9.97;6.23;;;;;;;;;;5031621;28;20038;-57
2021/11/24 03:24:55;;;;;;;9.13;6.60;;;;;;;;;;5031499;28;20363;-57
2021/11/24 03:27:25;;;;;;;11.53;7.20;;;;;;;;;;5031380;28;20108;-59
2021/11/24 03:29:52;;;;;;;6.60;5.90;;;;;;;;;;5030701;28;20359;-58
2021/11/24 03:32:18;;;;;;;7.77;6.13;;;;;;;;;;5031439;28;20116;-58
2021/11/24 03:34:44;;;;;;;8.07;6.30;;;;;;;;;;5031464;28;20025;-58
2021/11/24 03:37:09;;;;;;;4.80;4.27;;;;;;;;;;5031280;28;20040;-59
2021/11/24 03:39:35;;;;;;;12.87;6.27;;;;;;;;;;5030676;28;20436;-58
2021/11/24 03:42:02;;;;;;;7.30;6.50;;;;;;;;;;5031230;28;20373;-58
2021/11/24 03:44:27;;;;;;;6.33;5.33;;;;;;;;;;5031452;28;20431;-57
2021/11/24 03:46:53;;;;;;;8.37;6.37;;;;;;;;;;5031676;28;20033;-58
2021/11/24 03:49:21;;;;;;;8.97;6.47;;;;;;;;;;5030626;28;20059;-58
2021/11/24 03:51:47;;;;;;;6.00;5.23;;;;;;;;;;5031248;28;20026;-58
2021/11/24 03:54:13;;;;;;;7.53;6.27;;;;;;;;;;5031296;28;20049;-58
2021/11/24 03:56:39;;;;;;;11.53;5.27;;;;;;;;;;5031211;28;20037;-57
2021/11/24 03:59:05;;;;;;;10.17;5.97;;;;;;;;;;5030210;28;20129;-58
2021/11/24 04:01:31;;;;;;;9.80;6.60;;;;;;;;;;5031254;28;20026;-59
2021/11/24 04:03:57;;;;;;;7.37;6.07;;;;;;;;;;5042995;28;20390;-58
2021/11/24 04:06:25;;;;;;;7.57;6.53;;;;;;;;;;5054424;28;20025;-57
2021/11/24 04:08:52;;;;;;;7.60;6.30;;;;;;;;;;5054531;28;20094;-59
2021/11/24 04:11:18;;;;;;;10.27;5.80;;;;;;;;;;5054508;28;20028;-59
2021/11/24 04:13:44;;;;;;;8.73;6.13;;;;;;;;;;5054428;28;20047;-58
2021/11/24 04:16:10;;;;;;;8.23;6.37;;;;;;;;;;5054530;28;20070;-58
2021/11/24 04:18:36;;;;;;;9.67;6.33;;;;;;;;;;5053956;28;20025;-58
2021/11/24 04:21:02;;;;;;;9.03;6.80;;;;;;;;;;5054573;28;20059;-59
2021/11/24 04:23:28;;;;;;;6.50;5.27;;;;;;;;;;5054448;28;20025;-58
2021/11/24 04:25:54;;;;;;;7.23;6.03;;;;;;;;;;5053976;28;20391;-59
2021/11/24 04:28:19;;;;;;;5.80;5.27;;;;;;;;;;5053849;28;20432;-58
2021/11/24 04:30:46;;;;;;;6.93;6.13;;;;;;;;;;5048737;28;20404;-59
2021/11/24 04:33:12;;;;;;;7.53;5.77;;;;;;;;;;5054487;28;20048;-59
2021/11/24 04:35:39;;;;;;;12.57;6.27;;;;;;;;;;5054342;28;20079;-58
2021/11/24 04:38:05;;;;;;;8.33;6.53;;;;;;;;;;5053508;28;20463;-58
2021/11/24 04:40:32;;;;;;;8.83;5.60;;;;;;;;;;5053909;28;20163;-58
2021/11/24 04:43:00;;;;;;;7.47;6.73;;;;;;;;;;5053939;28;20033;-58
2021/11/24 04:45:26;;;;;;;6.30;5.50;;;;;;;;;;5054321;28;20153;-58
2021/11/24 04:47:52;;;;;;;7.30;6.23;;;;;;;;;;5053314;28;20024;-57
2021/11/24 04:50:18;;;;;;;8.10;5.93;;;;;;;;;;5054045;28;20044;-58
2021/11/24 04:52:45;;;;;;;8.40;5.77;;;;;;;;;;5053877;28;20025;-56
2021/11/24 04:55:11;;;;;;;12.00;6.63;;;;;;;;;;5053746;28;20029;-57
2021/11/24 04:57:37;;;;;;;10.33;8.00;;;;;;;;;;5042859;28;20438;-58
2021/11/24 05:00:10;;;;;;;10.23;6.80;;;;;;;;;;5033412;28;20029;-58
2021/11/24 05:02:36;;;;;;;11.40;7.50;;;;;;;;;;5034609;28;20052;-57
2021/11/24 05:05:02;;;;;;;7.60;6.90;;;;;;;;;;5053822;28;20104;-58
2021/11/24 05:07:28;;;;;;;8.00;7.00;;;;;;;;;;5052781;28;20190;-58
2021/11/24 05:09:54;;;;;;;8.17;6.53;;;;;;;;;;5052880;28;20048;-57
2021/11/24 05:12:20;;;;;;;11.80;6.03;;;;;;;;;;5053676;28;20493;-58
2021/11/24 05:14:48;;;;;;;11.00;7.17;;;;;;;;;;5049657;28;20049;-58
2021/11/24 05:17:17;;;;;;;7.23;6.07;;;;;;;;;;5032768;28;20029;-58
2021/11/24 05:19:47;;;;;;;7.63;6.00;;;;;;;;;;5032833;28;20435;-57
2021/11/24 05:22:13;;;;;;;7.60;6.72;;;;;;;;;;5033416;28;20041;-58
2021/11/24 05:24:39;;;;;;;11.17;7.40;;;;;;;;;;5035570;28;20084;-58
2021/11/24 05:27:05;;;;;;;6.53;5.70;;;;;;;;;;5053584;28;20029;-58
2021/11/24 05:29:31;;;;;;;7.37;5.53;;;;;;;;;;5052516;28;20032;-57
2021/11/24 05:31:57;;;;;;;9.40;5.97;;;;;;;;;;5053322;28;20040;-58
2021/11/24 05:34:23;;;;;;;7.37;5.53;;;;;;;;;;5053159;28;20036;-58
2021/11/24 05:36:49;;;;;;;8.10;6.40;;;;;;;;;;5050677;28;20119;-58
2021/11/24 05:39:15;;;;;;;6.33;5.67;;;;;;;;;;5038101;28;20073;-58
2021/11/24 05:41:42;;;;;;;9.33;6.70;;;;;;;;;;5053496;28;20057;-58
2021/11/24 05:44:20;;;;;;;8.23;6.03;;;;;;;;;;5052868;28;20544;-58
2021/11/24 05:46:49;;;;;;;9.27;6.57;;;;;;;;;;5052988;28;20437;-58
2021/11/24 05:49:15;;;;;;;10.60;5.47;;;;;;;;;;5052146;28;20043;-58
2021/11/24 05:51:41;;;;;;;9.00;6.63;;;;;;;;;;5043060;28;20494;-57
2021/11/24 05:54:08;;;;;;;11.50;7.90;;;;;;;;;;5033037;28;20022;-57
2021/11/24 05:56:36;;;;;;;8.17;7.37;;;;;;;;;;5032931;28;20098;-58
2021/11/24 05:59:02;;;;;;;7.80;7.10;;;;;;;;;;5031889;28;20032;-59
2021/11/24 06:01:29;;;;;;;10.80;8.70;;;;;;;;;;5032461;28;20041;-58
2021/11/24 06:03:55;;;;;;;10.87;7.00;;;;;;;;;;5043957;28;20101;-58
2021/11/24 06:06:21;;;;;;;8.40;6.30;;;;;;;;;;5047929;28;20120;-58
2021/11/24 06:08:47;;;;;;;7.43;6.10;;;;;;;;;;5044792;28;20503;-59
2021/11/24 06:11:13;;;;;;;8.27;7.47;;;;;;;;;;5033787;28;20142;-58
2021/11/24 06:13:39;;;;;;;8.47;7.60;;;;;;;;;;5032224;28;20037;-58
2021/11/24 06:16:05;;;;;;;8.47;7.63;;;;;;;;;;5041717;28;20433;-59
2021/11/24 06:18:31;;;;;;;6.77;5.70;;;;;;;;;;5051541;28;20108;-58
2021/11/24 06:20:57;;;;;;;10.77;7.27;;;;;;;;;;5052474;28;20033;-59
2021/11/24 06:23:23;;;;;;;7.07;6.37;;;;;;;;;;5048728;28;20025;-58
2021/11/24 06:25:49;;;;;;;10.93;9.83;;;;;;;;;;5050482;28;20114;-58
2021/11/24 06:28:15;;;;;;;8.63;6.77;;;;;;;;;;5051329;28;20375;-58
2021/11/24 06:30:41;;;;;;;6.53;6.03;;;;;;;;;;5051872;28;20366;-58
2021/11/24 06:33:07;;;;;;;9.13;6.47;;;;;;;;;;5051811;28;20039;-59
2021/11/24 06:35:33;;;;;;;13.70;9.07;;;;;;;;;;5051965;28;20037;-58
2021/11/24 06:37:59;;;;;;;8.43;7.63;;;;;;;;;;5050847;28;20029;-58
2021/11/24 06:40:25;;;;;;;10.90;9.13;;;;;;;;;;5031882;28;20033;-58
2021/11/24 06:42:51;;;;;;;10.47;7.63;;;;;;;;;;5033164;28;20025;-58
2021/11/24 06:45:17;;;;;;;9.87;8.50;;;;;;;;;;5039766;28;20057;-59
2021/11/24 06:47:43;;;;;;;10.07;8.83;;;;;;;;;;5039192;28;20029;-58
2021/11/24 06:50:10;;;;;;;9.33;8.00;;;;;;;;;;5031550;28;20463;-59
2021/11/24 06:52:36;;;;;;;9.70;6.83;;;;;;;;;;5032116;28;20443;-59
2021/11/24 06:55:03;;;;;;;10.97;8.80;;;;;;;;;;5031944;28;20394;-59
2021/11/24 06:57:29;;;;;;;9.40;8.30;;;;;;;;;;5031852;28;20037;-59
2021/11/24 06:59:55;;;;;;;10.90;7.90;;;;;;;;;;5037675;28;20493;-59
2021/11/24 07:02:21;;;;;;;11.50;9.03;;;;;;;;;;5051144;28;20442;-59
2021/11/24 07:04:47;;;;;;;20.63;9.13;;;;;;;;;;5032863;28;20090;-58
2021/11/24 07:07:13;;;;;;;11.83;10.70;;;;;;;;;;5031645;28;20033;-59
2021/11/24 07:09:40;;;;;;;12.83;10.67;;;;;;;;;;5030949;28;20040;-59
2021/11/24 07:12:07;;;;;;;13.37;10.10;;;;;;;;;;5043494;28;20033;-58
2021/11/24 07:14:33;;;;;;;10.77;9.27;;;;;;;;;;5048824;28;20101;-59
2021/11/24 07:16:59;;;;;;;9.30;8.30;;;;;;;;;;5050512;28;20477;-59
2021/11/24 07:19:25;;;;;;;10.67;9.67;;;;;;;;;;5031585;28;20136;-59
2021/11/24 07:21:51;;;;;;;14.87;10.73;;;;;;;;;;5031720;28;20132;-58
2021/11/24 07:24:18;;;;;;;11.43;9.67;;;;;;;;;;5031608;28;20053;-58
2021/11/24 07:26:44;;;;;;;14.43;12.43;;;;;;;;;;5031513;28;20061;-58
2021/11/24 07:29:10;;;;;;;10.53;9.47;;;;;;;;;;5030828;28;20030;-58
2021/11/24 07:31:36;;;;;;;9.83;8.70;;;;;;;;;;5041845;28;20037;-58
2021/11/24 07:34:02;;;;;;;14.17;10.63;;;;;;;;;;5050796;28;20032;-58
2021/11/24 07:36:28;;;;;;;19.23;9.57;;;;;;;;;;5050878;28;20037;-59
2021/11/24 07:38:54;;;;;;;21.17;11.77;;;;;;;;;;5050524;28;20119;-58
2021/11/24 07:41:20;;;;;;;12.70;10.13;;;;;;;;;;5055070;28;20033;-58
2021/11/24 07:43:46;;;;;;;9.07;7.70;;;;;;;;;;5055204;28;20086;-58
2021/11/24 07:46:12;;;;;;;10.30;9.10;;;;;;;;;;5038386;28;20474;-59
2021/11/24 07:48:38;;;;;;;11.07;8.93;;;;;;;;;;5034795;28;20026;-57
2021/11/24 07:51:04;;;;;;;9.40;8.47;;;;;;;;;;5035329;28;20499;-59
2021/11/24 07:53:30;;;;;;;13.03;11.70;;;;;;;;;;5035133;28;20025;-59
2021/11/24 07:55:56;;;;;;;16.13;11.07;;;;;;;;;;5035326;28;20049;-58
2021/11/24 07:58:22;;;;;;;10.77;8.63;;;;;;;;;;5034420;28;20079;-59
2021/11/24 08:00:48;;;;;;;13.93;11.43;;;;;;;;;;5036182;28;20455;-59
2021/11/24 08:03:14;;;;;;;14.20;9.87;;;;;;;;;;5041027;28;20056;-57
2021/11/24 08:05:40;;;;;;;10.63;9.53;;;;;;;;;;5053735;28;20065;-58
2021/11/24 08:08:06;;;;;;;13.00;11.20;;;;;;;;;;5054578;28;20045;-58
2021/11/24 08:10:32;;;;;;;14.90;11.73;;;;;;;;;;5054758;28;20036;-58
2021/11/24 08:12:58;;;;;;;14.77;11.40;;;;;;;;;;5054744;28;20481;-58
2021/11/24 08:15:24;;;;;;;16.30;11.40;;;;;;;;;;5044812;28;20029;-59
2021/11/24 08:17:50;;;;;;;11.67;9.90;;;;;;;;;;5053363;28;20029;-59
2021/11/24 08:20:16;;;;;;;13.07;11.80;;;;;;;;;;5052544;28;20115;-58
2021/11/24 08:22:42;;;;;;;11.63;10.03;;;;;;;;;;5052813;28;20025;-59
2021/11/24 08:25:09;;;;;;;14.37;10.73;;;;;;;;;;5052293;28;20033;-58
2021/11/24 08:27:38;;;;;;;13.70;11.03;;;;;;;;;;5053605;28;20114;-59
2021/11/24 08:30:04;;;;;;;15.23;13.00;;;;;;;;;;5052548;28;20065;-58
2021/11/24 08:32:30;;;;;;;12.93;10.90;;;;;;;;;;5053613;28;20468;-58
2021/11/24 08:34:56;;;;;;;12.00;10.70;;;;;;;;;;5054041;28;20142;-58
2021/11/24 08:37:22;;;;;;;12.23;9.47;;;;;;;;;;5054319;28;20029;-58
2021/11/24 08:39:48;;;;;;;11.53;10.33;;;;;;;;;;5051262;28;20037;-58
2021/11/24 08:42:15;;;;;;;10.37;9.23;;;;;;;;;;5054111;28;20039;-58
2021/11/24 08:44:41;;;;;;;12.77;11.27;;;;;;;;;;5053962;28;20390;-58
2021/11/24 08:47:07;;;;;;;12.07;10.10;;;;;;;;;;5054009;28;20035;-58
2021/11/24 08:49:33;;;;;;;12.70;9.80;;;;;;;;;;5053830;28;20112;-58
2021/11/24 08:51:59;;;;;;;15.13;12.57;;;;;;;;;;5050207;28;20043;-58
2021/11/24 08:54:26;;;;;;;12.90;11.43;;;;;;;;;;5034154;28;20091;-58
2021/11/24 08:56:52;;;;;;;16.77;13.67;;;;;;;;;;5033792;28;20053;-59
2021/11/24 08:59:18;;;;;;;14.83;11.43;;;;;;;;;;5033300;28;20033;-59
2021/11/24 09:01:44;;;;;;;15.43;12.43;;;;;;;;;;5034267;28;20033;-58
2021/11/24 09:04:10;;;;;;;19.10;16.20;;;;;;;;;;5047458;28;20427;-58
2021/11/24 09:06:36;;;;;;;16.33;14.63;;;;;;;;;;5052947;28;20059;-58
2021/11/24 09:09:06;;;;;;;23.53;15.30;;;;;;;;;;5053025;28;20120;-58
2021/11/24 09:11:32;;;;;;;21.00;16.37;;;;;;;;;;5053406;28;20356;-58
2021/11/24 09:13:58;;;;;;;18.80;12.83;;;;;;;;;;5053844;28;20029;-58
2021/11/24 09:16:24;;;;;;;14.10;11.17;;;;;;;;;;5053462;28;20021;-58
2021/11/24 09:18:50;;;;;;;16.33;11.73;;;;;;;;;;5051572;28;20137;-58
2021/11/24 09:21:19;;;;;;;14.93;12.80;;;;;;;;;;5033404;28;20068;-58
2021/11/24 09:23:45;;;;;;;13.67;11.67;;;;;;;;;;5033493;28;20044;-58
2021/11/24 09:26:16;;;;;;;18.37;11.30;;;;;;;;;;5033205;28;20029;-58
2021/11/24 09:28:43;;;;;;;15.17;12.27;;;;;;;;;;5033028;28;20052;-58
2021/11/24 09:31:09;;;;;;;13.57;11.37;;;;;;;;;;5033466;28;20034;-58
2021/11/24 09:33:37;;;;;;;15.17;11.70;;;;;;;;;;5049118;28;20021;-58
2021/11/24 09:36:03;;;;;;;15.23;11.53;;;;;;;;;;5053210;28;20036;-58
2021/11/24 09:38:30;;;;;;;19.83;13.77;;;;;;;;;;5052315;28;20127;-58
2021/11/24 09:41:00;;;;;;;15.77;11.60;;;;;;;;;;5053207;28;20025;-59
2021/11/24 09:43:28;;;;;;;13.52;11.20;;;;;;;;;;5053331;28;20505;-58
2021/11/24 09:45:55;;;;;;;16.13;13.23;;;;;;;;;;5050892;28;20051;-59
2021/11/24 09:48:21;;;;;;;17.90;13.33;;;;;;;;;;5051855;28;20100;-59
2021/11/24 09:50:48;;;;;;;14.73;12.73;;;;;;;;;;5048927;28;20064;-58
2021/11/24 09:53:16;;;;;;;14.07;12.70;;;;;;;;;;5032730;28;20458;-59
2021/11/24 09:55:42;;;;;;;13.97;11.80;;;;;;;;;;5032859;28;20061;-59
2021/11/24 09:58:09;;;;;;;17.27;13.30;;;;;;;;;;5032351;28;20100;-59
2021/11/24 10:00:36;;;;;;;16.10;13.47;;;;;;;;;;5032834;28;20044;-59
2021/11/24 10:03:03;;;;;;;25.00;15.27;;;;;;;;;;5036548;28;20021;-59
2021/11/24 10:05:30;;;;;;;16.90;14.00;;;;;;;;;;5046656;28;20068;-59
2021/11/24 10:07:56;;;;;;;16.67;12.33;;;;;;;;;;5044612;28;20033;-59
2021/11/24 10:10:22;;;;;;;18.33;14.73;;;;;;;;;;5052561;28;20029;-58
2021/11/24 10:12:48;;;;;;;16.63;12.80;;;;;;;;;;5052596;28;20020;-59
2021/11/24 10:15:33;;;;;;;16.47;12.03;;;;;;;;;;5052893;28;20032;-57
2021/11/24 10:18:17;;;;;;;13.73;12.30;;;;;;;;;;5051490;28;20055;-59
2021/11/24 10:20:45;;;;;;;18.37;13.17;;;;;;;;;;5037526;28;20037;-58
2021/11/24 10:23:23;;;;;;;16.63;12.87;;;;;;;;;;5032824;28;20383;-58
2021/11/24 10:25:49;;;;;;;18.67;13.77;;;;;;;;;;5032259;28;20117;-58
2021/11/24 10:28:29;;;;;;;17.23;12.87;;;;;;;;;;5032147;28;20092;-59
2021/11/24 10:30:56;;;;;;;15.17;12.77;;;;;;;;;;5043117;28;20025;-59
2021/11/24 10:33:25;;;;;;;14.17;11.30;;;;;;;;;;5043640;28;20017;-59
2021/11/24 10:36:12;;;;;;;13.27;11.15;;;;;;;;;;5047268;28;20037;-59
2021/11/24 10:38:39;;;;;;;17.97;12.47;;;;;;;;;;5051341;28;20108;-58
2021/11/24 10:41:08;;;;;;;11.80;10.57;;;;;;;;;;5063667;28;20051;-58
2021/11/24 10:43:42;;;;;;;15.90;9.57;;;;;;;;;;5051852;28;20021;-58
2021/11/24 10:46:10;;;;;;;12.60;10.27;;;;;;;;;;5050347;28;20447;-58
2021/11/24 10:48:36;;;;;;;15.33;10.93;;;;;;;;;;5038579;28;20467;-58
2021/11/24 10:51:22;;;;;;;16.37;12.97;;;;;;;;;;5046070;28;20032;-58
2021/11/24 10:54:07;;;;;;;13.67;12.20;;;;;;;;;;5040231;28;20032;-59
2021/11/24 10:56:33;;;;;;;16.67;11.33;;;;;;;;;;5031910;28;20017;-58
2021/11/24 10:59:15;;;;;;;15.10;12.03;;;;;;;;;;5033893;28;20382;-58
2021/11/24 11:01:41;;;;;;;15.30;13.60;;;;;;;;;;5044158;28;20021;-58
2021/11/24 11:04:10;;;;;;;18.33;14.03;;;;;;;;;;5043799;28;20025;-58
2021/11/24 11:06:37;;;;;;;13.77;10.10;;;;;;;;;;5070080;28;20505;-58
2021/11/24 11:09:03;;;;;;;20.57;12.03;;;;;;;;;;5070837;28;20060;-58
2021/11/24 11:11:30;;;;;;;16.33;14.50;;;;;;;;;;5071725;28;20070;-57
2021/11/24 11:14:21;;;;;;;14.57;9.93;;;;;;;;;;5071188;28;20036;-58
2021/11/24 11:16:47;;;;;;;;;;;;;;;;;;5054190;28;20078;-58
2021/11/24 11:19:32;;;;;;;20.07;12.97;;;;;;;;;;5051206;28;19904;-59
2021/11/24 11:22:00;;;;;;;14.27;11.10;;;;;;;;;;5038462;28;20037;-59
2021/11/24 11:24:26;;;;;;;13.88;10.55;;;;;;;;;;5045746;28;20025;-58
2021/11/24 11:26:52;;;;;;;20.97;12.00;;;;;;;;;;5044325;28;20111;-58
2021/11/24 11:29:18;;;;;;;13.43;10.60;;;;;;;;;;5048581;28;20037;-57
2021/11/24 11:31:44;;;;;;;12.40;9.10;;;;;;;;;;5046424;28;20030;-58
2021/11/24 11:34:14;;;;;;;16.50;9.93;;;;;;;;;;5043783;28;20033;-58
2021/11/24 11:36:40;;;;;;;14.47;10.93;;;;;;;;;;5042618;28;20036;-58
2021/11/24 11:39:06;;;;;;;17.33;9.90;;;;;;;;;;5042710;28;20033;-58
2021/11/24 11:41:34;;;;;;;16.23;10.93;;;;;;;;;;5033032;28;20029;-58
2021/11/24 11:44:00;;;;;;;12.63;9.60;;;;;;;;;;5042864;28;20060;-57
2021/11/24 11:46:26;;;;;;;14.37;10.07;;;;;;;;;;5043219;28;20425;-58
2021/11/24 11:48:52;;;;;;;13.82;9.55;;;;;;;;;;5041771;28;20025;-58
2021/11/24 11:51:36;;;;;;;14.73;10.83;;;;;;;;;;5049221;28;20029;-58
2021/11/24 11:54:03;;;;;;;15.63;10.90;;;;;;;;;;5033973;28;20051;-58
2021/11/24 11:56:30;;;;;;;11.77;9.33;;;;;;;;;;5033064;28;20059;-58
2021/11/24 11:59:01;;;;;;;13.68;10.13;;;;;;;;;;5032732;28;20033;-58
2021/11/24 12:01:27;;;;;;;;;;;;;;;;;;5033581;28;20040;-58
2021/11/24 12:03:59;;;;;;;11.93;8.38;;;;;;;;;;5043856;28;19909;-58
2021/11/24 12:06:27;;;;;;;10.80;9.20;;;;;;;;;;5047214;28;20111;-58
2021/11/24 12:09:12;;;;;;;11.80;9.13;;;;;;;;;;5031069;28;20033;-58
2021/11/24 12:11:56;;;;;;;12.40;9.47;;;;;;;;;;5039406;28;20033;-58
2021/11/24 12:14:41;;;;;;;15.23;8.97;;;;;;;;;;5042064;28;20031;-58
2021/11/24 12:17:25;;;;;;;19.65;10.48;;;;;;;;;;5047274;28;20090;-58
2021/11/24 12:19:51;;;;;;;10.17;8.53;;;;;;;;;;5036517;28;20120;-58
2021/11/24 12:22:17;;;;;;;15.25;9.52;;;;;;;;;;5040089;28;20032;-57
2021/11/24 12:24:46;;;;;;;15.87;12.30;;;;;;;;;;5045789;28;20037;-58
2021/11/24 12:27:12;;;;;;;16.07;9.87;;;;;;;;;;5033942;28;20092;-58
2021/11/24 12:29:47;;;;;;;15.25;8.77;;;;;;;;;;5052221;28;20036;-58
2021/11/24 12:32:16;;;;;;;15.52;11.05;;;;;;;;;;5040243;28;20471;-58
2021/11/24 12:34:51;;;;;;;15.55;12.27;;;;;;;;;;5037722;28;20051;-58
2021/11/24 12:37:18;;;;;;;18.77;11.50;;;;;;;;;;5038137;28;20029;-56
2021/11/24 12:39:44;;;;;;;13.68;9.52;;;;;;;;;;5039216;28;20140;-57
2021/11/24 12:42:11;;;;;;;16.90;10.47;;;;;;;;;;5037653;28;20109;-58
2021/11/24 12:44:37;;;;;;;12.57;10.60;;;;;;;;;;5034259;28;20026;-58
2021/11/24 12:47:06;;;;;;;13.70;10.95;;;;;;;;;;5035078;28;20022;-58
2021/11/24 12:49:32;;;;;;;12.82;10.52;;;;;;;;;;5033385;28;20038;-58
2021/11/24 12:51:59;;;;;;;17.88;10.90;;;;;;;;;;5037271;28;20373;-58
2021/11/24 12:54:32;;;;;;;15.87;11.93;;;;;;;;;;5050033;28;20036;-59
2021/11/24 12:56:59;;;;;;;15.63;11.77;;;;;;;;;;5039842;28;20045;-59
2021/11/24 12:59:30;;;;;;;15.73;11.30;;;;;;;;;;5037197;28;20067;-59
2021/11/24 13:01:56;;;;;;;;;;;;;;;;;;5052776;28;20035;-58
2021/11/24 13:04:23;;;;;;;14.52;9.55;;;;;;;;;;5040199;28;19909;-59
2021/11/24 13:06:51;;;;;;;14.83;10.10;;;;;;;;;;5047545;28;20486;-59
2021/11/24 13:09:18;;;;;;;15.00;10.68;;;;;;;;;;5053215;28;20052;-59
2021/11/24 13:11:53;;;;;;;15.20;10.00;;;;;;;;;;5051378;28;20033;-58
2021/11/24 13:14:20;;;;;;;13.80;10.27;;;;;;;;;;5045639;28;20115;-59
2021/11/24 13:16:46;;;;;;;16.05;10.60;;;;;;;;;;5040764;28;20033;-59
2021/11/24 13:19:12;;;;;;;17.90;11.98;;;;;;;;;;5033883;28;20098;-59
2021/11/24 13:21:53;;;;;;;13.50;9.80;;;;;;;;;;5034811;28;20387;-59
2021/11/24 13:24:19;;;;;;;12.57;10.10;;;;;;;;;;5039284;28;20073;-59
2021/11/24 13:26:52;;;;;;;11.45;9.77;;;;;;;;;;5039282;28;20057;-58
2021/11/24 13:29:18;;;;;;;17.10;10.77;;;;;;;;;;5039925;28;20030;-59
2021/11/24 13:31:44;;;;;;;11.77;9.77;;;;;;;;;;5042362;28;20029;-59
2021/11/24 13:34:10;;;;;;;13.13;10.37;;;;;;;;;;5048176;28;20032;-58
2021/11/24 13:36:44;;;;;;;15.32;11.05;;;;;;;;;;5044621;28;20030;-59
2021/11/24 13:39:10;;;;;;;14.35;10.65;;;;;;;;;;5047325;28;20036;-59
2021/11/24 13:41:38;;;;;;;21.15;12.35;;;;;;;;;;5046049;28;20029;-58
2021/11/24 13:44:05;;;;;;;16.70;10.98;;;;;;;;;;5046819;28;20049;-59
2021/11/24 13:46:32;;;;;;;13.07;10.75;;;;;;;;;;5043247;28;20025;-59
2021/11/24 13:49:10;;;;;;;16.08;12.40;;;;;;;;;;5051717;28;20382;-57
2021/11/24 13:51:40;;;;;;;17.23;12.57;;;;;;;;;;5043668;28;20037;-59
2021/11/24 13:54:10;;;;;;;17.60;11.93;;;;;;;;;;5045667;28;20531;-59
2021/11/24 13:56:44;;;;;;;14.90;10.80;;;;;;;;;;5033362;28;20060;-58
2021/11/24 13:59:10;;;;;;;17.38;11.52;;;;;;;;;;5049911;28;20035;-58
2021/11/24 14:01:44;;;;;;;14.00;10.93;;;;;;;;;;5033223;28;20032;-59
2021/11/24 14:04:13;;;;;;;16.80;11.95;;;;;;;;;;5045737;28;20440;-58
2021/11/24 14:06:43;;;;;;;17.77;11.50;;;;;;;;;;5050893;28;20029;-59
2021/11/24 14:09:17;;;;;;;14.57;11.55;;;;;;;;;;5049803;28;20025;-58
2021/11/24 14:12:03;;;;;;;16.40;12.48;;;;;;;;;;5044067;28;20064;-59
2021/11/24 14:14:30;;;;;;;16.08;10.70;;;;;;;;;;5051066;28;20059;-58
2021/11/24 14:16:57;;;;;;;18.05;13.00;;;;;;;;;;5037344;28;20344;-59
2021/11/24 14:19:23;;;;;;;16.85;12.75;;;;;;;;;;5033020;28;20111;-59
2021/11/24 14:21:50;;;;;;;16.98;13.15;;;;;;;;;;5032266;28;20032;-59
2021/11/24 14:24:16;;;;;;;15.40;11.23;;;;;;;;;;5049833;28;20036;-59
2021/11/24 14:26:42;;;;;;;18.93;12.40;;;;;;;;;;5051459;28;20025;-59
2021/11/24 14:29:10;;;;;;;16.03;12.67;;;;;;;;;;5040887;28;20029;-59
2021/11/24 14:31:36;;;;;;;15.77;10.97;;;;;;;;;;5047600;28;20033;-59
2021/11/24 14:34:02;;;;;;;17.90;11.37;;;;;;;;;;5051028;28;20032;-57